sensor_id;sensor_type;location;lat;lon;timestamp;temperature;humidity
18868;DHT22;9563;49.240;9.088;2023-09-19T04:00:17;16.70;99.90
18868;DHT22;9563;49.240;9.088;2023-09-19T04:02:47;16.70;99.90
18868;DHT22;9563;49.240;9.088;2023-09-19T04:05:13;16.70;99.90
18868;DHT22;9563;49.240;9.088;2023-09-19T04:07:40;16.70;99.90
18868;DHT22;9563;49.240;9.088;2023-09-19T04:10:08;16.70;99.90
18868;DHT22;9563;49.240;9.088;2023-09-19T04:12:37;16.70;99.90
18868;DHT22;9563;49.240;9.088;2023-09-19T04:15:04;16.70;99.90
18868;DHT22;9563;49.240;9.088;2023-09-19T04:17:33;16.70;99.90
18868;DHT22;9563;49.240;9.088;2023-09-19T04:20:00;16.60;99.90
18868;DHT22;9563;49.240;9.088;2023-09-19T04:22:27;16.60;99.90
18868;DHT22;9563;49.240;9.088;2023-09-19T04:24:53;16.60;99.90
18868;DHT22;9563;49.240;9.088;2023-09-19T04:27:20;16.60;99.90
18868;DHT22;9563;49.240;9.088;2023-09-19T04:29:48;16.60;99.90
18868;DHT22;9563;49.240;9.088;2023-09-19T04:32:16;16.60;99.90
18868;DHT22;9563;49.240;9.088;2023-09-19T04:34:44;16.60;99.90
18868;DHT22;9563;49.240;9.088;2023-09-19T04:37:11;16.50;99.90
18868;DHT22;9563;49.240;9.088;2023-09-19T04:39:40;16.50;99.90
18868;DHT22;9563;49.240;9.088;2023-09-19T04:42:07;16.50;99.90
18868;DHT22;9563;49.240;9.088;2023-09-19T04:44:37;16.50;99.90
18868;DHT22;9563;49.240;9.088;2023-09-19T04:47:04;16.50;99.90
18868;DHT22;9563;49.240;9.088;2023-09-19T04:49:31;16.50;99.90
18868;DHT22;9563;49.240;9.088;2023-09-19T04:52:00;16.50;99.90
18868;DHT22;9563;49.240;9.088;2023-09-19T04:54:26;16.50;99.90
18868;DHT22;9563;49.240;9.088;2023-09-19T04:56:53;16.50;99.90
18868;DHT22;9563;49.240;9.088;2023-09-19T04:59:20;16.50;99.90
18868;DHT22;9563;49.240;9.088;2023-09-19T05:01:48;16.40;99.90
18868;DHT22;9563;49.240;9.088;2023-09-19T05:04:15;16.40;99.90
18868;DHT22;9563;49.240;9.088;2023-09-19T05:06:42;16.30;99.90
18868;DHT22;9563;49.240;9.088;2023-09-19T05:09:11;16.20;99.90
18868;DHT22;9563;49.240;9.088;2023-09-19T05:11:38;16.20;99.90
18868;DHT22;9563;49.240;9.088;2023-09-19T05:14:08;16.20;99.90
18868;DHT22;9563;49.240;9.088;2023-09-19T05:16:35;16.20;99.90
18868;DHT22;9563;49.240;9.088;2023-09-19T05:19:02;16.20;99.90
18868;DHT22;9563;49.240;9.088;2023-09-19T05:21:30;16.20;99.90
18868;DHT22;9563;49.240;9.088;2023-09-19T05:23:58;16.20;99.90
18868;DHT22;9563;49.240;9.088;2023-09-19T05:26:27;16.20;99.90
18868;DHT22;9563;49.240;9.088;2023-09-19T05:28:54;16.20;99.90
18868;DHT22;9563;49.240;9.088;2023-09-19T05:31:20;16.20;99.90
18868;DHT22;9563;49.240;9.088;2023-09-19T05:33:49;16.20;99.90
18868;DHT22;9563;49.240;9.088;2023-09-19T05:36:16;16.20;99.90
18868;DHT22;9563;49.240;9.088;2023-09-19T05:38:43;16.30;99.90
18868;DHT22;9563;49.240;9.088;2023-09-19T05:41:10;16.30;99.90
18868;DHT22;9563;49.240;9.088;2023-09-19T05:43:40;16.30;99.90
18868;DHT22;9563;49.240;9.088;2023-09-19T05:46:07;16.30;99.90
18868;DHT22;9563;49.240;9.088;2023-09-19T05:48:34;16.40;99.90
18868;DHT22;9563;49.240;9.088;2023-09-19T05:51:01;16.40;99.90
18868;DHT22;9563;49.240;9.088;2023-09-19T05:53:28;16.40;99.90
18868;DHT22;9563;49.240;9.088;2023-09-19T05:55:55;16.30;99.90
18868;DHT22;9563;49.240;9.088;2023-09-19T05:58:22;16.30;99.90
18868;DHT22;9563;49.240;9.088;2023-09-19T06:00:50;16.30;99.90
18868;DHT22;9563;49.240;9.088;2023-09-19T06:03:17;16.30;99.90
18868;DHT22;9563;49.240;9.088;2023-09-19T06:05:45;16.30;99.90
18868;DHT22;9563;49.240;9.088;2023-09-19T06:08:15;16.40;99.90
18868;DHT22;9563;49.240;9.088;2023-09-19T06:10:42;16.40;99.90
18868;DHT22;9563;49.240;9.088;2023-09-19T06:13:09;16.40;99.90
18868;DHT22;9563;49.240;9.088;2023-09-19T06:15:36;16.40;99.90
18868;DHT22;9563;49.240;9.088;2023-09-19T06:18:09;16.40;99.90
18868;DHT22;9563;49.240;9.088;2023-09-19T06:20:39;16.40;99.90
18868;DHT22;9563;49.240;9.088;2023-09-19T06:23:09;16.40;99.90
18868;DHT22;9563;49.240;9.088;2023-09-19T06:25:36;16.50;99.90
18868;DHT22;9563;49.240;9.088;2023-09-19T06:28:04;16.50;99.90
18868;DHT22;9563;49.240;9.088;2023-09-19T06:30:33;16.60;99.90
18868;DHT22;9563;49.240;9.088;2023-09-19T06:33:01;16.70;99.90
18868;DHT22;9563;49.240;9.088;2023-09-19T06:35:32;16.80;99.90
18868;DHT22;9563;49.240;9.088;2023-09-19T06:38:02;16.90;99.90
18868;DHT22;9563;49.240;9.088;2023-09-19T06:40:29;16.90;99.90
18868;DHT22;9563;49.240;9.088;2023-09-19T06:42:56;17.00;99.90
18868;DHT22;9563;49.240;9.088;2023-09-19T06:45:23;17.00;99.90
18868;DHT22;9563;49.240;9.088;2023-09-19T06:47:52;17.00;99.90
18868;DHT22;9563;49.240;9.088;2023-09-19T06:50:21;17.00;99.90
18868;DHT22;9563;49.240;9.088;2023-09-19T06:52:51;17.00;99.90
18868;DHT22;9563;49.240;9.088;2023-09-19T06:55:20;16.90;99.90
18868;DHT22;9563;49.240;9.088;2023-09-19T06:57:49;16.90;99.90
18868;DHT22;9563;49.240;9.088;2023-09-19T07:00:16;17.00;99.90
18868;DHT22;9563;49.240;9.088;2023-09-19T07:02:45;17.00;99.90
18868;DHT22;9563;49.240;9.088;2023-09-19T07:05:12;17.00;99.90
18868;DHT22;9563;49.240;9.088;2023-09-19T07:07:39;17.00;99.90
18868;DHT22;9563;49.240;9.088;2023-09-19T07:10:09;17.00;99.90
18868;DHT22;9563;49.240;9.088;2023-09-19T07:12:36;17.00;99.90
18868;DHT22;9563;49.240;9.088;2023-09-19T07:15:03;17.00;99.90
18868;DHT22;9563;49.240;9.088;2023-09-19T07:17:31;17.00;99.90
18868;DHT22;9563;49.240;9.088;2023-09-19T07:20:01;17.10;99.90
18868;DHT22;9563;49.240;9.088;2023-09-19T07:22:33;17.10;99.90
18868;DHT22;9563;49.240;9.088;2023-09-19T07:24:59;17.20;99.90
18868;DHT22;9563;49.240;9.088;2023-09-19T07:27:28;17.10;99.90
18868;DHT22;9563;49.240;9.088;2023-09-19T07:29:55;17.00;99.90
18868;DHT22;9563;49.240;9.088;2023-09-19T07:32:22;17.00;99.90
18868;DHT22;9563;49.240;9.088;2023-09-19T07:34:51;17.10;99.90
18868;DHT22;9563;49.240;9.088;2023-09-19T07:37:18;17.10;99.90
18868;DHT22;9563;49.240;9.088;2023-09-19T07:39:46;17.10;99.90
18868;DHT22;9563;49.240;9.088;2023-09-19T07:42:13;17.20;99.90
18868;DHT22;9563;49.240;9.088;2023-09-19T07:44:44;17.20;99.90
18868;DHT22;9563;49.240;9.088;2023-09-19T07:47:13;17.10;99.90
18868;DHT22;9563;49.240;9.088;2023-09-19T07:49:40;17.30;99.90
18868;DHT22;9563;49.240;9.088;2023-09-19T07:52:07;17.60;99.90
18868;DHT22;9563;49.240;9.088;2023-09-19T07:54:34;17.80;99.90
18868;DHT22;9563;49.240;9.088;2023-09-19T07:57:03;17.80;99.90
18868;DHT22;9563;49.240;9.088;2023-09-19T07:59:30;18.00;99.90
18868;DHT22;9563;49.240;9.088;2023-09-19T08:01:58;18.20;99.90
18868;DHT22;9563;49.240;9.088;2023-09-19T08:04:26;18.30;99.90
18868;DHT22;9563;49.240;9.088;2023-09-19T08:06:53;18.40;99.90
18868;DHT22;9563;49.240;9.088;2023-09-19T08:09:21;18.50;99.90
18868;DHT22;9563;49.240;9.088;2023-09-19T08:11:51;18.50;99.90
18868;DHT22;9563;49.240;9.088;2023-09-19T08:14:25;18.40;99.90
18868;DHT22;9563;49.240;9.088;2023-09-19T08:16:52;18.30;99.90
18868;DHT22;9563;49.240;9.088;2023-09-19T08:19:23;18.30;99.90
18868;DHT22;9563;49.240;9.088;2023-09-19T08:21:55;18.40;99.90
18868;DHT22;9563;49.240;9.088;2023-09-19T08:24:21;18.80;99.90
18868;DHT22;9563;49.240;9.088;2023-09-19T08:26:48;19.10;99.90
18868;DHT22;9563;49.240;9.088;2023-09-19T08:29:16;19.20;99.90
18868;DHT22;9563;49.240;9.088;2023-09-19T08:31:47;19.20;99.90
18868;DHT22;9563;49.240;9.088;2023-09-19T08:34:17;19.20;99.90
18868;DHT22;9563;49.240;9.088;2023-09-19T08:36:48;19.30;99.90
18868;DHT22;9563;49.240;9.088;2023-09-19T08:39:15;19.20;99.90
18868;DHT22;9563;49.240;9.088;2023-09-19T08:41:44;18.90;99.90
18868;DHT22;9563;49.240;9.088;2023-09-19T08:44:11;19.10;99.90
18868;DHT22;9563;49.240;9.088;2023-09-19T08:46:45;19.00;99.90
18868;DHT22;9563;49.240;9.088;2023-09-19T08:49:19;18.90;99.90
18868;DHT22;9563;49.240;9.088;2023-09-19T08:51:56;18.70;99.90
18868;DHT22;9563;49.240;9.088;2023-09-19T08:54:32;18.50;99.90
18868;DHT22;9563;49.240;9.088;2023-09-19T08:57:06;18.30;99.90
18868;DHT22;9563;49.240;9.088;2023-09-19T08:59:38;18.40;99.90
18868;DHT22;9563;49.240;9.088;2023-09-19T09:02:14;18.40;99.90
18868;DHT22;9563;49.240;9.088;2023-09-19T09:04:43;18.40;99.90
18868;DHT22;9563;49.240;9.088;2023-09-19T09:07:12;18.50;99.90
18868;DHT22;9563;49.240;9.088;2023-09-19T09:09:40;18.60;99.90
18868;DHT22;9563;49.240;9.088;2023-09-19T09:12:09;18.80;99.90
18868;DHT22;9563;49.240;9.088;2023-09-19T09:14:38;19.00;99.90
18868;DHT22;9563;49.240;9.088;2023-09-19T09:17:04;19.30;99.90
18868;DHT22;9563;49.240;9.088;2023-09-19T09:19:32;19.40;99.90
18868;DHT22;9563;49.240;9.088;2023-09-19T09:22:07;19.30;99.90
18868;DHT22;9563;49.240;9.088;2023-09-19T09:24:36;19.40;99.90
18868;DHT22;9563;49.240;9.088;2023-09-19T09:27:07;19.20;99.90
18868;DHT22;9563;49.240;9.088;2023-09-19T09:29:43;18.80;99.90
18868;DHT22;9563;49.240;9.088;2023-09-19T09:32:23;18.60;99.90
18868;DHT22;9563;49.240;9.088;2023-09-19T09:34:51;18.60;99.90
18868;DHT22;9563;49.240;9.088;2023-09-19T09:37:19;18.60;99.90
18868;DHT22;9563;49.240;9.088;2023-09-19T09:39:55;18.60;99.90
18868;DHT22;9563;49.240;9.088;2023-09-19T09:42:33;18.50;99.90
18868;DHT22;9563;49.240;9.088;2023-09-19T09:45:22;18.60;99.90
18868;DHT22;9563;49.240;9.088;2023-09-19T09:47:54;18.80;99.90
18868;DHT22;9563;49.240;9.088;2023-09-19T09:50:25;19.10;99.90
18868;DHT22;9563;49.240;9.088;2023-09-19T09:52:55;19.20;99.90
18868;DHT22;9563;49.240;9.088;2023-09-19T09:55:57;19.50;99.90
18868;DHT22;9563;49.240;9.088;2023-09-19T09:58:24;19.50;99.90
18868;DHT22;9563;49.240;9.088;2023-09-19T10:00:56;19.70;99.90
18868;DHT22;9563;49.240;9.088;2023-09-19T10:03:32;20.10;99.90
18868;DHT22;9563;49.240;9.088;2023-09-19T10:06:05;20.30;99.90
18868;DHT22;9563;49.240;9.088;2023-09-19T10:08:58;20.40;99.90
18868;DHT22;9563;49.240;9.088;2023-09-19T10:11:35;20.60;99.90
18868;DHT22;9563;49.240;9.088;2023-09-19T10:14:03;20.70;99.90
18868;DHT22;9563;49.240;9.088;2023-09-19T10:16:32;20.20;99.90
18868;DHT22;9563;49.240;9.088;2023-09-19T10:19:04;20.00;99.90
18868;DHT22;9563;49.240;9.088;2023-09-19T10:21:32;20.20;99.90
18868;DHT22;9563;49.240;9.088;2023-09-19T10:24:03;20.00;99.90
18868;DHT22;9563;49.240;9.088;2023-09-19T10:26:36;19.60;99.90
18868;DHT22;9563;49.240;9.088;2023-09-19T10:29:06;19.40;99.90
18868;DHT22;9563;49.240;9.088;2023-09-19T10:31:36;19.40;99.90
18868;DHT22;9563;49.240;9.088;2023-09-19T10:34:07;19.60;99.90
18868;DHT22;9563;49.240;9.088;2023-09-19T10:36:36;19.60;99.90
18868;DHT22;9563;49.240;9.088;2023-09-19T10:39:05;19.90;99.90
18868;DHT22;9563;49.240;9.088;2023-09-19T10:41:38;20.50;99.90
18868;DHT22;9563;49.240;9.088;2023-09-19T10:44:06;20.80;99.90
18868;DHT22;9563;49.240;9.088;2023-09-19T10:46:35;21.20;99.90
18868;DHT22;9563;49.240;9.088;2023-09-19T10:49:04;21.30;99.90
18868;DHT22;9563;49.240;9.088;2023-09-19T10:51:40;21.60;99.90
18868;DHT22;9563;49.240;9.088;2023-09-19T10:54:11;21.80;99.90
18868;DHT22;9563;49.240;9.088;2023-09-19T10:56:46;22.10;99.90
18868;DHT22;9563;49.240;9.088;2023-09-19T10:59:17;22.40;99.90
18868;DHT22;9563;49.240;9.088;2023-09-19T11:01:45;22.20;99.90
18868;DHT22;9563;49.240;9.088;2023-09-19T11:04:27;22.10;99.90
18868;DHT22;9563;49.240;9.088;2023-09-19T11:07:05;22.30;99.90
18868;DHT22;9563;49.240;9.088;2023-09-19T11:09:46;22.20;99.90
18868;DHT22;9563;49.240;9.088;2023-09-19T11:12:50;22.20;99.90
18868;DHT22;9563;49.240;9.088;2023-09-19T11:18:52;21.30;99.90
18868;DHT22;9563;49.240;9.088;2023-09-19T11:21:52;21.00;99.90
18868;DHT22;9563;49.240;9.088;2023-09-19T11:24:30;21.20;99.90
18868;DHT22;9563;49.240;9.088;2023-09-19T11:27:11;21.60;99.90
18868;DHT22;9563;49.240;9.088;2023-09-19T11:29:40;21.50;99.90
18868;DHT22;9563;49.240;9.088;2023-09-19T11:32:07;21.00;99.90
18868;DHT22;9563;49.240;9.088;2023-09-19T11:34:46;21.00;99.90
18868;DHT22;9563;49.240;9.088;2023-09-19T11:40:45;21.40;99.90
18868;DHT22;9563;49.240;9.088;2023-09-19T11:43:32;21.40;99.90
18868;DHT22;9563;49.240;9.088;2023-09-19T11:46:16;21.20;99.90
18868;DHT22;9563;49.240;9.088;2023-09-19T11:48:48;21.50;99.90
18868;DHT22;9563;49.240;9.088;2023-09-19T11:51:17;21.80;99.90
18868;DHT22;9563;49.240;9.088;2023-09-19T11:53:53;22.00;99.90
18868;DHT22;9563;49.240;9.088;2023-09-19T11:56:22;22.00;99.90
18868;DHT22;9563;49.240;9.088;2023-09-19T11:58:50;22.00;99.90
18868;DHT22;9563;49.240;9.088;2023-09-19T12:01:30;22.10;99.90
18868;DHT22;9563;49.240;9.088;2023-09-19T12:03:59;22.30;99.90
18868;DHT22;9563;49.240;9.088;2023-09-19T12:06:28;22.40;99.90
18868;DHT22;9563;49.240;9.088;2023-09-19T12:08:58;22.20;99.90
18868;DHT22;9563;49.240;9.088;2023-09-19T12:11:30;21.80;99.90
18868;DHT22;9563;49.240;9.088;2023-09-19T12:13:59;22.00;99.90
18868;DHT22;9563;49.240;9.088;2023-09-19T12:16:28;22.10;99.90
18868;DHT22;9563;49.240;9.088;2023-09-19T12:18:56;22.40;99.90
18868;DHT22;9563;49.240;9.088;2023-09-19T12:21:25;22.40;99.90
18868;DHT22;9563;49.240;9.088;2023-09-19T12:24:09;22.20;99.90
18868;DHT22;9563;49.240;9.088;2023-09-19T12:26:43;21.90;99.90
18868;DHT22;9563;49.240;9.088;2023-09-19T12:29:21;22.00;99.90
18868;DHT22;9563;49.240;9.088;2023-09-19T12:31:51;21.90;99.90
18868;DHT22;9563;49.240;9.088;2023-09-19T12:34:21;22.00;99.90
18868;DHT22;9563;49.240;9.088;2023-09-19T12:37:09;22.30;99.90
18868;DHT22;9563;49.240;9.088;2023-09-19T12:39:42;22.40;99.90
18868;DHT22;9563;49.240;9.088;2023-09-19T12:42:10;22.30;99.90
18868;DHT22;9563;49.240;9.088;2023-09-19T12:44:41;22.30;99.90
18868;DHT22;9563;49.240;9.088;2023-09-19T12:47:11;22.30;99.90
18868;DHT22;9563;49.240;9.088;2023-09-19T12:50:06;22.50;99.90
18868;DHT22;9563;49.240;9.088;2023-09-19T12:52:39;22.70;99.90
18868;DHT22;9563;49.240;9.088;2023-09-19T12:55:06;22.90;99.90
18868;DHT22;9563;49.240;9.088;2023-09-19T12:57:35;22.80;99.90
18868;DHT22;9563;49.240;9.088;2023-09-19T13:00:02;22.50;99.90
18868;DHT22;9563;49.240;9.088;2023-09-19T13:02:32;22.40;99.90
18868;DHT22;9563;49.240;9.088;2023-09-19T13:04:59;22.50;99.90
18868;DHT22;9563;49.240;9.088;2023-09-19T13:07:43;22.50;99.90
18868;DHT22;9563;49.240;9.088;2023-09-19T13:10:14;22.50;99.90
18868;DHT22;9563;49.240;9.088;2023-09-19T13:12:43;22.70;99.90
18868;DHT22;9563;49.240;9.088;2023-09-19T13:15:14;22.80;99.90
18868;DHT22;9563;49.240;9.088;2023-09-19T13:17:47;22.80;99.90
18868;DHT22;9563;49.240;9.088;2023-09-19T13:20:21;22.70;99.90
18868;DHT22;9563;49.240;9.088;2023-09-19T13:22:55;22.70;99.90
18868;DHT22;9563;49.240;9.088;2023-09-19T13:25:26;22.70;99.90
18868;DHT22;9563;49.240;9.088;2023-09-19T13:27:57;22.70;99.90
18868;DHT22;9563;49.240;9.088;2023-09-19T13:30:26;22.80;99.90
18868;DHT22;9563;49.240;9.088;2023-09-19T13:33:06;22.80;99.90
18868;DHT22;9563;49.240;9.088;2023-09-19T13:35:35;22.80;99.90
18868;DHT22;9563;49.240;9.088;2023-09-19T13:38:03;22.90;99.90
18868;DHT22;9563;49.240;9.088;2023-09-19T13:40:30;22.90;99.90
18868;DHT22;9563;49.240;9.088;2023-09-19T13:43:00;23.10;99.90
18868;DHT22;9563;49.240;9.088;2023-09-19T13:45:27;23.00;99.90
18868;DHT22;9563;49.240;9.088;2023-09-19T13:47:56;23.00;99.90
18868;DHT22;9563;49.240;9.088;2023-09-19T13:50:25;22.80;99.90
18868;DHT22;9563;49.240;9.088;2023-09-19T13:52:54;22.70;99.90
18868;DHT22;9563;49.240;9.088;2023-09-19T13:55:21;22.50;99.90
18868;DHT22;9563;49.240;9.088;2023-09-19T13:57:49;22.40;99.90
18868;DHT22;9563;49.240;9.088;2023-09-19T14:00:20;22.30;99.90
18868;DHT22;9563;49.240;9.088;2023-09-19T14:02:48;22.20;99.90
18868;DHT22;9563;49.240;9.088;2023-09-19T14:05:16;22.40;99.90
18868;DHT22;9563;49.240;9.088;2023-09-19T14:07:45;22.60;99.90
18868;DHT22;9563;49.240;9.088;2023-09-19T14:10:12;22.70;99.90
18868;DHT22;9563;49.240;9.088;2023-09-19T14:12:40;22.60;99.90
18868;DHT22;9563;49.240;9.088;2023-09-19T14:15:08;22.40;99.90
18868;DHT22;9563;49.240;9.088;2023-09-19T14:17:36;22.20;99.90
18868;DHT22;9563;49.240;9.088;2023-09-19T14:20:03;22.30;99.90
18868;DHT22;9563;49.240;9.088;2023-09-19T14:22:32;22.50;99.90
18868;DHT22;9563;49.240;9.088;2023-09-19T14:25:01;22.70;99.90
18868;DHT22;9563;49.240;9.088;2023-09-19T14:27:28;22.80;99.90
18868;DHT22;9563;49.240;9.088;2023-09-19T14:29:55;22.90;99.90
18868;DHT22;9563;49.240;9.088;2023-09-19T14:32:22;22.80;99.90
18868;DHT22;9563;49.240;9.088;2023-09-19T14:34:49;22.90;99.90
18868;DHT22;9563;49.240;9.088;2023-09-19T14:37:16;22.70;99.90
18868;DHT22;9563;49.240;9.088;2023-09-19T14:39:43;22.60;99.90
18868;DHT22;9563;49.240;9.088;2023-09-19T14:42:11;22.60;99.90
18868;DHT22;9563;49.240;9.088;2023-09-19T14:44:40;22.60;99.90
18868;DHT22;9563;49.240;9.088;2023-09-19T14:47:07;22.40;99.90
18868;DHT22;9563;49.240;9.088;2023-09-19T14:49:34;22.20;99.90
18868;DHT22;9563;49.240;9.088;2023-09-19T14:52:04;22.10;99.90
18868;DHT22;9563;49.240;9.088;2023-09-19T14:54:31;21.90;99.90
18868;DHT22;9563;49.240;9.088;2023-09-19T14:56:57;21.90;99.90
18868;DHT22;9563;49.240;9.088;2023-09-19T14:59:31;21.90;99.90
18868;DHT22;9563;49.240;9.088;2023-09-19T15:01:59;22.00;99.90
18868;DHT22;9563;49.240;9.088;2023-09-19T15:04:26;22.00;99.90
18868;DHT22;9563;49.240;9.088;2023-09-19T15:06:53;21.90;99.90
18868;DHT22;9563;49.240;9.088;2023-09-19T15:09:20;21.80;99.90
18868;DHT22;9563;49.240;9.088;2023-09-19T15:11:49;21.90;99.90
18868;DHT22;9563;49.240;9.088;2023-09-19T15:14:17;21.80;99.90
18868;DHT22;9563;49.240;9.088;2023-09-19T15:16:46;21.80;99.90
18868;DHT22;9563;49.240;9.088;2023-09-19T15:19:13;21.70;99.90
18868;DHT22;9563;49.240;9.088;2023-09-19T15:21:40;21.60;99.90
18868;DHT22;9563;49.240;9.088;2023-09-19T15:24:08;21.50;99.90
18868;DHT22;9563;49.240;9.088;2023-09-19T15:26:35;21.50;99.90
18868;DHT22;9563;49.240;9.088;2023-09-19T15:29:04;21.50;99.90
18868;DHT22;9563;49.240;9.088;2023-09-19T15:31:31;21.50;99.90
18868;DHT22;9563;49.240;9.088;2023-09-19T15:33:59;21.50;99.90
18868;DHT22;9563;49.240;9.088;2023-09-19T15:36:27;21.50;99.90
18868;DHT22;9563;49.240;9.088;2023-09-19T15:38:58;21.50;99.90
18868;DHT22;9563;49.240;9.088;2023-09-19T15:41:27;21.40;99.90
18868;DHT22;9563;49.240;9.088;2023-09-19T15:43:54;21.40;99.90
18868;DHT22;9563;49.240;9.088;2023-09-19T15:46:21;21.30;99.90
18868;DHT22;9563;49.240;9.088;2023-09-19T15:48:48;21.30;99.90
18868;DHT22;9563;49.240;9.088;2023-09-19T15:51:17;21.30;99.90
18868;DHT22;9563;49.240;9.088;2023-09-19T15:53:46;21.20;99.90
18868;DHT22;9563;49.240;9.088;2023-09-19T15:56:14;21.20;99.90
18868;DHT22;9563;49.240;9.088;2023-09-19T15:58:44;21.20;99.90
18868;DHT22;9563;49.240;9.088;2023-09-19T16:01:11;21.10;99.90
18868;DHT22;9563;49.240;9.088;2023-09-19T16:03:40;21.10;99.90
18868;DHT22;9563;49.240;9.088;2023-09-19T16:06:09;21.10;99.90
18868;DHT22;9563;49.240;9.088;2023-09-19T16:08:40;21.00;99.90
18868;DHT22;9563;49.240;9.088;2023-09-19T16:11:07;21.00;99.90
18868;DHT22;9563;49.240;9.088;2023-09-19T16:13:34;20.90;99.90
18868;DHT22;9563;49.240;9.088;2023-09-19T16:16:01;20.90;99.90
18868;DHT22;9563;49.240;9.088;2023-09-19T16:18:29;20.80;99.90
18868;DHT22;9563;49.240;9.088;2023-09-19T16:21:01;20.80;99.90
18868;DHT22;9563;49.240;9.088;2023-09-19T16:23:28;20.80;99.90
18868;DHT22;9563;49.240;9.088;2023-09-19T16:26:02;20.80;99.90
18868;DHT22;9563;49.240;9.088;2023-09-19T16:28:31;20.80;99.90
18868;DHT22;9563;49.240;9.088;2023-09-19T16:30:59;20.70;99.90
18868;DHT22;9563;49.240;9.088;2023-09-19T16:33:27;20.60;99.90
18868;DHT22;9563;49.240;9.088;2023-09-19T16:35:54;20.60;99.90
18868;DHT22;9563;49.240;9.088;2023-09-19T16:38:22;20.70;99.90
18868;DHT22;9563;49.240;9.088;2023-09-19T16:40:53;20.80;99.90
18868;DHT22;9563;49.240;9.088;2023-09-19T16:43:21;20.90;99.90
18868;DHT22;9563;49.240;9.088;2023-09-19T16:45:55;21.10;99.90
18868;DHT22;9563;49.240;9.088;2023-09-19T16:48:22;21.30;99.90
18868;DHT22;9563;49.240;9.088;2023-09-19T16:50:50;21.40;99.90
18868;DHT22;9563;49.240;9.088;2023-09-19T16:53:17;21.40;99.90
18868;DHT22;9563;49.240;9.088;2023-09-19T16:55:45;21.40;99.90
18868;DHT22;9563;49.240;9.088;2023-09-19T16:58:12;21.40;99.90
18868;DHT22;9563;49.240;9.088;2023-09-19T17:00:41;21.50;99.90
18868;DHT22;9563;49.240;9.088;2023-09-19T17:03:09;21.50;99.90
18868;DHT22;9563;49.240;9.088;2023-09-19T17:05:36;21.50;99.90
18868;DHT22;9563;49.240;9.088;2023-09-19T17:08:05;21.50;99.90
18868;DHT22;9563;49.240;9.088;2023-09-19T17:10:33;21.40;99.90
18868;DHT22;9563;49.240;9.088;2023-09-19T17:12:59;21.30;99.90
18868;DHT22;9563;49.240;9.088;2023-09-19T17:15:26;21.10;99.90
18868;DHT22;9563;49.240;9.088;2023-09-19T17:17:57;21.00;99.90
18868;DHT22;9563;49.240;9.088;2023-09-19T17:20:24;20.70;99.90
18868;DHT22;9563;49.240;9.088;2023-09-19T17:22:51;20.50;99.90
18868;DHT22;9563;49.240;9.088;2023-09-19T17:25:21;20.40;99.90
18868;DHT22;9563;49.240;9.088;2023-09-19T17:27:50;20.30;99.90
18868;DHT22;9563;49.240;9.088;2023-09-19T17:30:17;20.20;99.90
18868;DHT22;9563;49.240;9.088;2023-09-19T17:32:45;20.10;99.90
18868;DHT22;9563;49.240;9.088;2023-09-19T17:35:14;20.00;99.90
18868;DHT22;9563;49.240;9.088;2023-09-19T17:37:43;19.90;99.90
18868;DHT22;9563;49.240;9.088;2023-09-19T17:40:11;19.80;99.90
18868;DHT22;9563;49.240;9.088;2023-09-19T17:42:38;19.70;99.90
18868;DHT22;9563;49.240;9.088;2023-09-19T17:45:08;19.50;99.90
18868;DHT22;9563;49.240;9.088;2023-09-19T17:47:35;19.40;99.90
18868;DHT22;9563;49.240;9.088;2023-09-19T17:50:03;19.30;99.90
18868;DHT22;9563;49.240;9.088;2023-09-19T17:52:32;19.30;99.90
18868;DHT22;9563;49.240;9.088;2023-09-19T17:54:59;19.20;99.90
18868;DHT22;9563;49.240;9.088;2023-09-19T17:57:26;19.10;99.90
18868;DHT22;9563;49.240;9.088;2023-09-19T17:59:53;19.00;99.90
18868;DHT22;9563;49.240;9.088;2023-09-19T18:02:20;19.00;99.90
18868;DHT22;9563;49.240;9.088;2023-09-19T18:04:47;18.90;99.90
18868;DHT22;9563;49.240;9.088;2023-09-19T18:07:14;18.80;99.90
18868;DHT22;9563;49.240;9.088;2023-09-19T18:09:43;18.70;99.90
18868;DHT22;9563;49.240;9.088;2023-09-19T18:12:10;18.70;99.90
18868;DHT22;9563;49.240;9.088;2023-09-19T18:14:37;18.60;99.90
18868;DHT22;9563;49.240;9.088;2023-09-19T18:17:04;18.50;99.90
18868;DHT22;9563;49.240;9.088;2023-09-19T18:19:32;18.50;99.90
18868;DHT22;9563;49.240;9.088;2023-09-19T18:21:58;18.40;99.90
18868;DHT22;9563;49.240;9.088;2023-09-19T18:24:29;18.40;99.90
18868;DHT22;9563;49.240;9.088;2023-09-19T18:26:57;18.30;99.90
18868;DHT22;9563;49.240;9.088;2023-09-19T18:29:24;18.20;99.90
18868;DHT22;9563;49.240;9.088;2023-09-19T18:31:53;18.10;99.90
18868;DHT22;9563;49.240;9.088;2023-09-19T18:34:20;18.10;99.90
18868;DHT22;9563;49.240;9.088;2023-09-19T18:36:48;18.00;99.90
18868;DHT22;9563;49.240;9.088;2023-09-19T18:39:15;18.00;99.90
18868;DHT22;9563;49.240;9.088;2023-09-19T18:41:45;17.90;99.90
18868;DHT22;9563;49.240;9.088;2023-09-19T18:44:14;17.70;99.90
18868;DHT22;9563;49.240;9.088;2023-09-19T18:46:41;17.60;99.90
18868;DHT22;9563;49.240;9.088;2023-09-19T18:49:09;17.60;99.90
18868;DHT22;9563;49.240;9.088;2023-09-19T18:51:36;17.50;99.90
18868;DHT22;9563;49.240;9.088;2023-09-19T18:54:06;17.40;99.90
18868;DHT22;9563;49.240;9.088;2023-09-19T18:56:33;17.40;99.90
18868;DHT22;9563;49.240;9.088;2023-09-19T18:59:03;17.30;99.90
18868;DHT22;9563;49.240;9.088;2023-09-19T19:01:32;17.20;99.90
18868;DHT22;9563;49.240;9.088;2023-09-19T19:03:59;17.10;99.90
18868;DHT22;9563;49.240;9.088;2023-09-19T19:06:25;17.10;99.90
18868;DHT22;9563;49.240;9.088;2023-09-19T19:08:52;17.00;99.90
18868;DHT22;9563;49.240;9.088;2023-09-19T19:11:19;17.00;99.90
18868;DHT22;9563;49.240;9.088;2023-09-19T19:13:47;17.00;99.90
18868;DHT22;9563;49.240;9.088;2023-09-19T19:16:15;17.00;99.90
18868;DHT22;9563;49.240;9.088;2023-09-19T19:18:43;16.90;99.90
18868;DHT22;9563;49.240;9.088;2023-09-19T19:21:12;16.80;99.90
18868;DHT22;9563;49.240;9.088;2023-09-19T19:23:41;16.80;99.90
18868;DHT22;9563;49.240;9.088;2023-09-19T19:26:08;16.70;99.90
18868;DHT22;9563;49.240;9.088;2023-09-19T19:28:38;16.60;99.90
18868;DHT22;9563;49.240;9.088;2023-09-19T19:31:06;16.50;99.90
18868;DHT22;9563;49.240;9.088;2023-09-19T19:33:34;16.50;99.90
18868;DHT22;9563;49.240;9.088;2023-09-19T19:36:06;16.40;99.90
18868;DHT22;9563;49.240;9.088;2023-09-19T19:38:34;16.40;99.90
18868;DHT22;9563;49.240;9.088;2023-09-19T19:41:02;16.30;99.90
18868;DHT22;9563;49.240;9.088;2023-09-19T19:43:30;16.30;99.90
18868;DHT22;9563;49.240;9.088;2023-09-19T19:45:59;16.30;99.90
18868;DHT22;9563;49.240;9.088;2023-09-19T19:48:26;16.40;99.90
18868;DHT22;9563;49.240;9.088;2023-09-19T19:50:54;16.40;99.90
18868;DHT22;9563;49.240;9.088;2023-09-19T19:53:24;16.40;99.90
18868;DHT22;9563;49.240;9.088;2023-09-19T19:55:51;16.40;99.90
18868;DHT22;9563;49.240;9.088;2023-09-19T19:58:18;16.40;99.90
18868;DHT22;9563;49.240;9.088;2023-09-19T20:00:47;16.50;99.90
18868;DHT22;9563;49.240;9.088;2023-09-19T20:03:14;16.60;99.90
18868;DHT22;9563;49.240;9.088;2023-09-19T20:05:42;16.60;99.90